Time;durP1;ratioP1;P1;durP2;ratioP2;P2;SDS_P1;SDS_P2;PMS_P1;PMS_P2;Temp;Humidity;BMP_temperature;BMP_pressure;BME280_temperature;BME280_humidity;BME280_pressure;Samples;Min_cycle;Max_cycle;Signal;HPM_P1;HPM_P2
2023/08/29 00:00:30;;;;;;;5.82;4.63;;;13.80;87.50;;;;;;4960627;28;20125;-79
2023/08/29 00:02:56;;;;;;;7.25;4.90;;;13.70;87.80;;;;;;4928767;28;20042;-79
2023/08/29 00:05:22;;;;;;;7.32;5.30;;;13.70;87.70;;;;;;4929053;28;20034;-78
2023/08/29 00:07:48;;;;;;;5.55;5.05;;;13.70;87.60;;;;;;4960404;28;20105;-80
2023/08/29 00:10:13;;;;;;;6.40;5.50;;;13.60;87.90;;;;;;4960738;28;20049;-80
2023/08/29 00:12:41;;;;;;;8.65;5.53;;;13.60;87.70;;;;;;4960568;28;20068;-79
2023/08/29 00:15:09;;;;;;;6.15;5.25;;;13.60;87.80;;;;;;4975808;28;20046;-79
2023/08/29 00:17:34;;;;;;;6.97;5.05;;;13.60;87.60;;;;;;4976552;28;20101;-79
2023/08/29 00:20:01;;;;;;;6.03;4.60;;;13.60;87.60;;;;;;4960610;28;20038;-79
2023/08/29 00:22:26;;;;;;;6.50;5.13;;;13.50;87.80;;;;;;4944291;28;20121;-79
2023/08/29 00:24:52;;;;;;;5.38;4.25;;;13.50;87.80;;;;;;4960556;28;20146;-79
2023/08/29 00:27:22;;;;;;;7.00;4.82;;;13.50;87.90;;;;;;4976231;28;20487;-79
2023/08/29 00:29:48;;;;;;;6.53;4.90;;;13.50;87.80;;;;;;4960696;28;20042;-79
2023/08/29 00:32:13;;;;;;;6.20;4.63;;;13.50;87.80;;;;;;4944664;28;20045;-79
2023/08/29 00:34:39;;;;;;;4.93;4.15;;;13.50;87.80;;;;;;4960177;28;20519;-79
2023/08/29 00:37:05;;;;;;;6.97;4.45;;;13.60;88.00;;;;;;4960244;28;20042;-79
2023/08/29 00:39:31;;;;;;;6.18;4.45;;;13.50;87.90;;;;;;4976604;28;20041;-80
2023/08/29 00:41:57;;;;;;;4.97;4.22;;;13.50;87.90;;;;;;4960043;28;20542;-79
2023/08/29 00:44:23;;;;;;;4.40;3.80;;;13.50;87.90;;;;;;4944154;28;20137;-80
2023/08/29 00:46:49;;;;;;;6.10;3.90;;;13.50;87.90;;;;;;4960021;28;20132;-79
2023/08/29 00:49:19;;;;;;;7.78;4.07;;;13.40;87.90;;;;;;4944381;28;20042;-80
2023/08/29 00:51:45;;;;;;;5.60;4.05;;;13.40;88.00;;;;;;4960063;28;20066;-80
2023/08/29 00:54:13;;;;;;;5.28;4.00;;;13.30;88.00;;;;;;4960053;28;20062;-79
2023/08/29 00:56:39;;;;;;;4.20;3.35;;;13.30;88.00;;;;;;4960275;28;20129;-79
2023/08/29 00:59:05;;;;;;;6.15;3.55;;;13.30;88.00;;;;;;4976317;28;20129;-80
2023/08/29 01:01:32;;;;;;;6.47;3.80;;;13.40;88.00;;;;;;4944143;28;20037;-79
2023/08/29 01:03:59;;;;;;;7.80;3.80;;;13.40;88.00;;;;;;4960112;28;20038;-80
2023/08/29 01:06:25;;;;;;;6.05;3.50;;;13.40;88.10;;;;;;4975931;28;20073;-80
2023/08/29 01:08:51;;;;;;;4.50;3.38;;;13.40;88.10;;;;;;4976246;28;20030;-80
2023/08/29 01:11:34;;;;;;;4.93;3.90;;;13.40;88.10;;;;;;4975913;28;20538;-80
2023/08/29 01:14:26;;;;;;;3.55;3.15;;;13.30;88.10;;;;;;4959693;28;20073;-79
2023/08/29 01:17:03;;;;;;;4.28;3.60;;;13.30;88.10;;;;;;4959674;28;20046;-79
2023/08/29 01:19:31;;;;;;;4.13;3.22;;;13.30;88.10;;;;;;4976099;28;20502;-80
2023/08/29 01:22:06;;;;;;;5.53;3.33;;;13.20;88.00;;;;;;4975760;28;20149;-80
2023/08/29 01:24:46;;;;;;;6.82;3.92;;;13.30;88.00;;;;;;4959560;28;20042;-79
2023/08/29 01:27:13;;;;;;;4.88;3.85;;;13.30;88.00;;;;;;4962560;28;20430;-80
2023/08/29 01:29:40;;;;;;;5.47;3.80;;;13.20;88.00;;;;;;4979399;28;20406;-80
2023/08/29 01:32:06;;;;;;;5.53;3.80;;;13.30;88.10;;;;;;4979463;28;20038;-79
2023/08/29 01:34:32;;;;;;;6.57;4.60;;;13.30;88.00;;;;;;4963245;28;20133;-78
2023/08/29 01:36:58;;;;;;;5.60;4.55;;;13.30;88.10;;;;;;4963312;28;20125;-79
2023/08/29 01:39:24;;;;;;;5.13;4.60;;;13.20;88.30;;;;;;4947309;28;20123;-79
2023/08/29 01:41:51;;;;;;;4.95;4.15;;;13.20;88.20;;;;;;4963305;28;20487;-79
2023/08/29 01:44:16;;;;;;;5.10;4.60;;;13.20;88.40;;;;;;4963338;28;20407;-80
2023/08/29 01:46:42;;;;;;;6.47;4.60;;;13.10;88.40;;;;;;4947192;28;20042;-80
2023/08/29 01:49:08;;;;;;;5.95;4.38;;;13.10;88.50;;;;;;4963301;28;20097;-80
2023/08/29 01:51:34;;;;;;;5.70;4.50;;;13.10;88.60;;;;;;4979131;28;20403;-79
2023/08/29 01:54:00;;;;;;;4.60;3.80;;;13.20;88.60;;;;;;4962907;28;20054;-79
2023/08/29 01:56:28;;;;;;;6.40;4.20;;;13.10;88.40;;;;;;4946949;28;20042;-80
2023/08/29 01:58:56;;;;;;;6.65;4.05;;;13.20;88.50;;;;;;4978921;28;20046;-79
2023/08/29 02:01:21;;;;;;;4.40;3.55;;;13.10;88.50;;;;;;4978853;28;20096;-80
2023/08/29 02:03:47;;;;;;;5.28;3.78;;;13.00;88.60;;;;;;4979093;28;20046;-80
2023/08/29 02:06:13;;;;;;;4.97;3.45;;;13.00;88.60;;;;;;4946621;28;20531;-80
2023/08/29 02:08:41;;;;;;;4.40;3.70;;;13.00;88.70;;;;;;4962581;28;20180;-80
2023/08/29 02:11:07;;;;;;;4.78;3.92;;;13.00;88.70;;;;;;4979027;28;20513;-79
2023/08/29 02:13:33;;;;;;;4.53;3.42;;;12.90;88.70;;;;;;4962610;28;20137;-79
2023/08/29 02:16:01;;;;;;;4.68;3.72;;;13.00;88.70;;;;;;4978806;28;20153;-79
2023/08/29 02:18:26;;;;;;;4.53;3.40;;;13.00;88.70;;;;;;4962470;28;20450;-79
2023/08/29 02:20:52;;;;;;;4.90;3.15;;;13.00;88.90;;;;;;4978407;28;20034;-79
2023/08/29 02:23:18;;;;;;;3.40;3.05;;;13.00;88.90;;;;;;4962722;28;20042;-79
2023/08/29 02:25:43;;;;;;;4.43;3.30;;;13.00;88.90;;;;;;4978559;28;20528;-80
2023/08/29 02:28:09;;;;;;;4.07;3.17;;;13.00;88.80;;;;;;4962635;28;20046;-80
2023/08/29 02:30:36;;;;;;;4.38;3.33;;;13.00;88.80;;;;;;4946464;28;20038;-80
2023/08/29 02:33:02;;;;;;;5.18;3.70;;;12.90;88.80;;;;;;4962236;28;20053;-79
2023/08/29 02:35:27;;;;;;;6.57;3.53;;;12.90;88.70;;;;;;4962075;28;20038;-80
2023/08/29 02:37:53;;;;;;;4.82;3.50;;;12.90;88.80;;;;;;4945398;28;20104;-79
2023/08/29 02:40:19;;;;;;;5.15;3.60;;;12.80;88.80;;;;;;4962346;28;20125;-79
2023/08/29 02:42:45;;;;;;;5.05;3.40;;;12.90;88.90;;;;;;4962373;28;20046;-80
2023/08/29 02:45:11;;;;;;;4.90;3.45;;;12.80;88.90;;;;;;4962064;28;20034;-79
2023/08/29 02:47:37;;;;;;;10.48;3.75;;;12.80;88.90;;;;;;4978344;28;20052;-80
2023/08/29 02:50:06;;;;;;;6.68;3.47;;;12.80;88.80;;;;;;4978007;28;20404;-80
2023/08/29 02:52:32;;;;;;;5.50;3.72;;;12.80;89.00;;;;;;4961755;28;20054;-80
2023/08/29 02:54:58;;;;;;;4.63;3.35;;;12.70;89.00;;;;;;4977953;28;20053;-79
2023/08/29 02:57:24;;;;;;;6.03;3.10;;;12.70;88.90;;;;;;4978050;28;20038;-79
2023/08/29 02:59:49;;;;;;;6.25;3.55;;;12.70;89.00;;;;;;4978115;28;20394;-80
2023/08/29 03:02:15;;;;;;;5.90;3.50;;;12.70;89.20;;;;;;4929883;28;20034;-79
2023/08/29 03:04:42;;;;;;;4.20;3.50;;;12.70;89.40;;;;;;4961655;28;20125;-79
2023/08/29 03:07:07;;;;;;;4.63;3.25;;;12.70;89.40;;;;;;4945990;28;20188;-79
2023/08/29 03:09:33;;;;;;;4.55;3.42;;;12.70;89.50;;;;;;4961555;28;20125;-80
2023/08/29 03:11:59;;;;;;;5.05;2.63;;;12.70;89.60;;;;;;4945659;28;20525;-79
2023/08/29 03:14:27;;;;;;;3.88;2.55;;;12.60;89.50;;;;;;4961681;28;20046;-79
2023/08/29 03:16:53;;;;;;;2.60;2.10;;;12.60;89.50;;;;;;4961560;28;20053;-80
2023/08/29 03:19:18;;;;;;;2.97;1.90;;;12.60;89.30;;;;;;4961300;28;20515;-80
2023/08/29 03:21:44;;;;;;;3.97;1.92;;;12.50;89.20;;;;;;4945459;28;20045;-78
2023/08/29 03:24:10;;;;;;;2.83;2.30;;;12.50;89.20;;;;;;4961579;28;20053;-79
2023/08/29 03:26:35;;;;;;;3.65;2.03;;;12.50;89.30;;;;;;4961200;28;20038;-80
2023/08/29 03:29:01;;;;;;;4.47;1.90;;;12.50;89.30;;;;;;4961485;28;20059;-79
2023/08/29 03:31:27;;;;;;;3.20;1.80;;;12.40;89.20;;;;;;4961215;28;20492;-79
2023/08/29 03:33:53;;;;;;;2.45;1.80;;;12.40;89.20;;;;;;4961408;28;20042;-78
2023/08/29 03:36:19;;;;;;;3.13;1.85;;;12.40;89.30;;;;;;4960923;28;20038;-79
2023/08/29 03:38:45;;;;;;;2.35;2.15;;;12.30;89.30;;;;;;4945256;28;20487;-79
2023/08/29 03:41:11;;;;;;;2.83;2.53;;;12.30;89.30;;;;;;4945203;28;20040;-78
2023/08/29 03:43:37;;;;;;;3.83;2.53;;;12.30;89.60;;;;;;4945023;28;20034;-78
2023/08/29 03:46:05;;;;;;;3.53;2.30;;;12.30;89.70;;;;;;4960848;28;20129;-79
2023/08/29 03:48:31;;;;;;;4.53;3.45;;;12.30;89.70;;;;;;4976887;28;20049;-79
2023/08/29 03:51:06;;;;;;;5.10;3.33;;;12.30;89.60;;;;;;4977125;28;20038;-79
2023/08/29 03:53:36;;;;;;;4.00;3.58;;;12.30;89.80;;;;;;4976815;28;20451;-79
2023/08/29 03:56:08;;;;;;;5.03;3.33;;;12.30;89.90;;;;;;4976683;28;20058;-79
2023/08/29 03:58:34;;;;;;;14.57;3.50;;;12.30;90.00;;;;;;4960639;28;20057;-79
2023/08/29 04:01:00;;;;;;;5.28;3.65;;;12.40;89.90;;;;;;4944733;28;20050;-78
2023/08/29 04:03:25;;;;;;;5.05;3.33;;;12.50;90.50;;;;;;4960528;28;20052;-79
2023/08/29 04:05:51;;;;;;;2.95;2.40;;;12.50;90.70;;;;;;4976892;28;20038;-79
2023/08/29 04:08:17;;;;;;;4.80;2.65;;;12.50;90.60;;;;;;4960893;28;20044;-79
2023/08/29 04:10:43;;;;;;;2.50;2.25;;;12.50;90.70;;;;;;4976862;28;20557;-79
2023/08/29 04:13:10;;;;;;;3.25;2.40;;;12.50;90.60;;;;;;4944763;28;20483;-80
2023/08/29 04:15:36;;;;;;;3.20;2.65;;;12.60;90.70;;;;;;4976761;28;20078;-80
2023/08/29 04:18:03;;;;;;;2.83;2.47;;;12.60;90.90;;;;;;4960415;28;20076;-80
2023/08/29 04:20:33;;;;;;;3.42;2.00;;;12.60;91.00;;;;;;4976755;28;20050;-80
2023/08/29 04:23:02;;;;;;;3.88;2.25;;;12.60;91.00;;;;;;4960323;28;20038;-80
2023/08/29 04:25:34;;;;;;;5.05;2.63;;;12.60;91.10;;;;;;4960978;28;20088;-80
2023/08/29 04:27:59;;;;;;;4.68;2.45;;;12.70;90.70;;;;;;4976298;28;20085;-80
2023/08/29 04:30:25;;;;;;;4.32;2.60;;;12.70;90.80;;;;;;4928605;28;20077;-80
2023/08/29 04:32:51;;;;;;;2.88;2.20;;;12.70;91.00;;;;;;4960220;28;20053;-80
2023/08/29 04:35:17;;;;;;;4.20;2.28;;;12.70;91.00;;;;;;4976286;28;20125;-80
2023/08/29 04:37:47;;;;;;;5.57;2.85;;;12.70;91.00;;;;;;4959501;28;20398;-80
2023/08/29 04:40:13;;;;;;;3.95;2.70;;;12.70;90.90;;;;;;4959708;28;20073;-78
2023/08/29 04:42:40;;;;;;;3.50;2.38;;;12.70;90.80;;;;;;4959290;28;20039;-80
2023/08/29 04:45:07;;;;;;;3.58;2.30;;;12.70;90.70;;;;;;4959468;28;20069;-80
2023/08/29 04:47:34;;;;;;;3.00;2.08;;;12.60;90.70;;;;;;4976369;28;20054;-80
2023/08/29 04:50:00;;;;;;;4.03;2.50;;;12.60;90.80;;;;;;4960061;28;20491;-80
2023/08/29 04:52:27;;;;;;;5.60;2.60;;;12.60;90.70;;;;;;4975942;28;20054;-80
2023/08/29 04:54:53;;;;;;;3.58;2.00;;;12.60;90.60;;;;;;4960021;28;20052;-80
2023/08/29 04:57:20;;;;;;;5.35;2.40;;;12.60;90.60;;;;;;4960107;28;20129;-79
2023/08/29 04:59:46;;;;;;;3.53;3.17;;;12.60;90.50;;;;;;4960328;28;20042;-79
2023/08/29 05:02:12;;;;;;;4.60;3.10;;;12.60;90.50;;;;;;4962947;28;20388;-79
2023/08/29 05:04:38;;;;;;;6.63;3.15;;;12.70;90.50;;;;;;4963728;28;20042;-80
2023/08/29 05:07:04;;;;;;;6.25;3.70;;;12.70;90.60;;;;;;4964099;28;20117;-79
2023/08/29 05:09:30;;;;;;;4.97;3.70;;;12.70;90.70;;;;;;4963923;28;20133;-80
2023/08/29 05:11:55;;;;;;;5.50;3.80;;;12.70;90.70;;;;;;4963823;28;20121;-80
2023/08/29 05:14:21;;;;;;;5.50;4.10;;;12.70;90.60;;;;;;4947705;28;20140;-80
2023/08/29 05:16:47;;;;;;;7.70;4.05;;;12.70;90.50;;;;;;4979643;28;20043;-81
2023/08/29 05:19:13;;;;;;;6.88;3.80;;;12.80;90.60;;;;;;4963921;28;20045;-81
2023/08/29 05:21:38;;;;;;;5.00;3.67;;;12.80;90.60;;;;;;4963586;28;20502;-81
2023/08/29 05:24:04;;;;;;;7.38;3.92;;;12.80;90.90;;;;;;4963568;28;20042;-81
2023/08/29 05:26:30;;;;;;;5.50;3.95;;;12.70;91.00;;;;;;4947566;28;20030;-80
2023/08/29 05:28:56;;;;;;;4.75;3.65;;;12.80;91.00;;;;;;4963461;28;20454;-80
2023/08/29 05:31:21;;;;;;;5.72;3.17;;;12.80;91.10;;;;;;4963575;28;20089;-81
2023/08/29 05:33:47;;;;;;;6.00;4.90;;;12.80;91.00;;;;;;4931671;28;20074;-81
2023/08/29 05:36:13;;;;;;;4.85;3.60;;;13.00;91.20;;;;;;4947413;28;20030;-79
2023/08/29 05:38:39;;;;;;;7.20;4.40;;;13.10;91.20;;;;;;4979244;28;20104;-81
2023/08/29 05:41:05;;;;;;;4.63;4.15;;;13.10;91.30;;;;;;4947516;28;20112;-81
2023/08/29 05:43:30;;;;;;;6.00;4.60;;;13.20;91.40;;;;;;4963272;28;20662;-81
2023/08/29 05:45:56;;;;;;;5.72;3.85;;;13.20;91.40;;;;;;4931380;28;20069;-80
2023/08/29 05:48:22;;;;;;;6.60;4.30;;;13.30;91.50;;;;;;4979470;28;20403;-80
2023/08/29 05:50:52;;;;;;;5.53;4.03;;;13.20;91.70;;;;;;4963313;28;20042;-80
2023/08/29 05:53:18;;;;;;;5.65;3.88;;;13.30;91.70;;;;;;4979015;28;20062;-80
2023/08/29 05:55:45;;;;;;;5.43;4.38;;;13.30;91.90;;;;;;4947281;28;20042;-79
2023/08/29 05:58:11;;;;;;;5.60;4.30;;;13.40;91.90;;;;;;4962914;28;20127;-81
2023/08/29 06:00:37;;;;;;;6.70;4.00;;;13.50;91.70;;;;;;4979236;28;20042;-82
2023/08/29 06:03:04;;;;;;;6.00;3.30;;;13.60;92.00;;;;;;4978866;28;20049;-81
2023/08/29 06:05:31;;;;;;;5.47;3.90;;;13.80;91.80;;;;;;4947010;28;20042;-81
2023/08/29 06:08:01;;;;;;;3.85;3.15;;;13.90;91.70;;;;;;4963328;28;20433;-81
2023/08/29 06:10:27;;;;;;;4.53;3.30;;;14.00;91.70;;;;;;4946176;28;20384;-82
2023/08/29 06:12:54;;;;;;;5.38;3.33;;;14.20;91.60;;;;;;4958692;28;20498;-82
2023/08/29 06:15:20;;;;;;;3.67;3.00;;;14.30;91.60;;;;;;4943910;28;20046;-81
2023/08/29 06:17:45;;;;;;;6.47;3.13;;;14.50;92.10;;;;;;4943878;28;20047;-82
2023/08/29 06:20:11;;;;;;;3.28;2.90;;;14.50;91.80;;;;;;4941313;28;20035;-81
2023/08/29 06:22:37;;;;;;;4.88;2.75;;;14.60;91.70;;;;;;4959090;28;20069;-81
2023/08/29 06:25:04;;;;;;;5.50;2.80;;;14.70;91.60;;;;;;4978810;28;20047;-81
2023/08/29 06:27:30;;;;;;;3.45;2.50;;;14.80;91.70;;;;;;4980637;28;20107;-80
2023/08/29 06:29:56;;;;;;;4.05;2.80;;;14.90;91.70;;;;;;4948477;28;20037;-80
2023/08/29 06:32:21;;;;;;;4.95;3.10;;;14.90;91.60;;;;;;4932449;28;20026;-81
2023/08/29 06:34:47;;;;;;;3.78;3.33;;;15.00;91.80;;;;;;4980675;28;20074;-81
2023/08/29 06:37:13;;;;;;;3.17;2.40;;;15.00;91.60;;;;;;4949300;28;20034;-81
2023/08/29 06:39:39;;;;;;;3.65;2.55;;;15.10;91.70;;;;;;4949540;28;20106;-81
2023/08/29 06:42:05;;;;;;;3.05;2.60;;;15.10;91.70;;;;;;4983412;28;20062;-81
2023/08/29 06:44:31;;;;;;;4.55;2.53;;;15.20;91.50;;;;;;4951623;28;20042;-81
2023/08/29 06:46:57;;;;;;;6.55;2.92;;;15.30;91.50;;;;;;4968286;28;20031;-81
2023/08/29 06:49:22;;;;;;;4.03;2.88;;;15.40;91.50;;;;;;4966416;28;20095;-81
2023/08/29 06:51:49;;;;;;;3.60;2.40;;;15.40;91.20;;;;;;4952412;28;20031;-80
2023/08/29 06:54:15;;;;;;;3.05;2.75;;;15.40;91.10;;;;;;4968343;28;20039;-81
2023/08/29 06:56:41;;;;;;;3.53;2.58;;;15.50;91.00;;;;;;4949326;28;20053;-82
2023/08/29 06:59:07;;;;;;;3.58;3.28;;;15.50;91.10;;;;;;4983298;28;20030;-81
2023/08/29 07:01:33;;;;;;;3.30;2.88;;;15.60;91.10;;;;;;4972486;28;20501;-80
2023/08/29 07:04:00;;;;;;;3.85;3.33;;;15.60;91.10;;;;;;4920162;28;20145;-81
2023/08/29 07:06:26;;;;;;;2.80;2.10;;;15.70;91.00;;;;;;4969895;28;20061;-81
2023/08/29 07:08:51;;;;;;;3.60;2.30;;;15.80;91.00;;;;;;4937779;28;20053;-81
2023/08/29 07:11:17;;;;;;;3.08;2.65;;;15.80;91.00;;;;;;4946542;28;20043;-81
2023/08/29 07:13:43;;;;;;;5.22;2.17;;;15.90;90.80;;;;;;4948541;28;20097;-80
2023/08/29 07:16:09;;;;;;;5.78;2.83;;;16.00;90.70;;;;;;4970403;28;20534;-81
2023/08/29 07:18:34;;;;;;;2.65;2.40;;;16.00;90.50;;;;;;4947995;28;20074;-81
2023/08/29 07:21:01;;;;;;;3.28;2.28;;;16.10;90.30;;;;;;4927089;29;20051;-81
2023/08/29 07:23:28;;;;;;;3.42;1.92;;;16.10;89.90;;;;;;4924671;28;20035;-81
2023/08/29 07:25:54;;;;;;;2.92;2.42;;;16.10;89.90;;;;;;4940895;29;20090;-81
2023/08/29 07:28:20;;;;;;;4.22;2.40;;;16.20;89.70;;;;;;4939558;29;20082;-80
2023/08/29 07:30:47;;;;;;;2.50;2.28;;;16.20;89.30;;;;;;4939674;29;20043;-80
2023/08/29 07:33:14;;;;;;;5.30;2.50;;;16.30;89.30;;;;;;4939675;29;20043;-81
2023/08/29 07:35:41;;;;;;;3.42;2.30;;;16.40;89.10;;;;;;4939661;29;20453;-81
2023/08/29 07:38:07;;;;;;;3.42;2.15;;;16.40;88.90;;;;;;4927975;28;20403;-79
2023/08/29 07:40:33;;;;;;;4.18;2.63;;;16.50;88.70;;;;;;4968685;28;20046;-79
2023/08/29 07:43:07;;;;;;;2.75;2.20;;;16.50;88.20;;;;;;4946914;28;20038;-80
2023/08/29 07:45:34;;;;;;;3.53;2.72;;;16.50;88.20;;;;;;4961488;28;20042;-80
2023/08/29 07:48:01;;;;;;;3.75;2.85;;;16.60;87.90;;;;;;4968670;28;20056;-80
2023/08/29 07:50:27;;;;;;;4.22;2.13;;;16.70;87.90;;;;;;4964914;28;20043;-81
2023/08/29 07:52:53;;;;;;;4.43;2.67;;;16.70;87.50;;;;;;4944657;28;20141;-81
2023/08/29 07:55:18;;;;;;;4.20;2.80;;;16.70;87.40;;;;;;4962367;28;20185;-80
2023/08/29 07:57:44;;;;;;;3.78;2.85;;;16.80;87.40;;;;;;4958937;28;20042;-80
2023/08/29 08:00:12;;;;;;;3.42;2.53;;;16.80;87.30;;;;;;4932773;28;20046;-80
2023/08/29 08:02:39;;;;;;;3.70;2.47;;;16.90;87.20;;;;;;4964373;28;20123;-80
2023/08/29 08:05:12;;;;;;;3.40;2.60;;;16.90;87.00;;;;;;4929256;28;20041;-79
2023/08/29 08:07:43;;;;;;;4.22;2.70;;;17.00;86.90;;;;;;4945781;28;20083;-80
2023/08/29 08:10:13;;;;;;;3.63;2.65;;;17.00;86.70;;;;;;4944355;28;20511;-80
2023/08/29 08:12:39;;;;;;;3.20;2.22;;;17.00;86.50;;;;;;4940432;28;20085;-80
2023/08/29 08:15:07;;;;;;;3.65;2.78;;;17.10;86.50;;;;;;4948969;28;20050;-80
2023/08/29 08:17:34;;;;;;;3.63;3.20;;;17.10;86.50;;;;;;4964952;28;20074;-80
2023/08/29 08:20:00;;;;;;;4.28;3.10;;;17.20;86.40;;;;;;4932877;28;20447;-79
2023/08/29 08:22:25;;;;;;;3.58;2.72;;;17.40;86.40;;;;;;4965452;28;20146;-80
2023/08/29 08:24:51;;;;;;;4.75;3.03;;;17.40;86.30;;;;;;4965097;28;20140;-80
2023/08/29 08:27:19;;;;;;;2.63;2.15;;;17.50;85.70;;;;;;4945329;28;20423;-79
2023/08/29 08:29:44;;;;;;;3.72;2.80;;;17.50;85.40;;;;;;4945796;28;20565;-79
2023/08/29 08:32:10;;;;;;;5.05;3.35;;;17.60;84.80;;;;;;4928978;28;20125;-79
2023/08/29 08:34:36;;;;;;;3.25;2.70;;;17.60;84.80;;;;;;4945241;28;20051;-78
2023/08/29 08:37:02;;;;;;;4.90;2.90;;;17.70;84.70;;;;;;4947233;28;20521;-79
2023/08/29 08:39:31;;;;;;;3.00;2.70;;;17.80;84.30;;;;;;4961006;28;20049;-79
2023/08/29 08:41:57;;;;;;;2.97;2.67;;;17.90;84.20;;;;;;4926191;28;20047;-79
2023/08/29 08:44:25;;;;;;;2.42;2.00;;;18.00;84.00;;;;;;4927522;28;20042;-79
2023/08/29 08:46:52;;;;;;;2.97;2.10;;;18.00;83.70;;;;;;4959320;28;20162;-80
2023/08/29 08:49:18;;;;;;;2.85;2.20;;;18.00;82.70;;;;;;4942324;28;20049;-80
2023/08/29 08:51:47;;;;;;;3.00;1.80;;;18.00;83.20;;;;;;4957494;28;20090;-81
2023/08/29 08:54:14;;;;;;;1.95;1.70;;;18.10;82.90;;;;;;4941341;28;20101;-78
2023/08/29 08:56:41;;;;;;;2.83;2.03;;;18.20;82.20;;;;;;4940662;28;20047;-78
2023/08/29 08:59:08;;;;;;;3.10;2.10;;;18.30;82.20;;;;;;4940862;28;20038;-78
2023/08/29 09:01:34;;;;;;;3.08;2.42;;;18.40;81.80;;;;;;4940884;28;20081;-78
2023/08/29 09:04:00;;;;;;;3.55;2.50;;;18.40;81.00;;;;;;4924533;28;20074;-78
2023/08/29 09:06:25;;;;;;;6.78;3.42;;;18.50;81.50;;;;;;4924954;28;20431;-79
2023/08/29 09:08:51;;;;;;;2.90;2.70;;;18.50;81.50;;;;;;4940777;28;20050;-81
2023/08/29 09:11:20;;;;;;;3.80;2.60;;;18.60;81.30;;;;;;4924980;28;20049;-79
2023/08/29 09:13:47;;;;;;;2.60;1.98;;;18.60;80.50;;;;;;4940609;28;20063;-79
2023/08/29 09:16:13;;;;;;;2.33;1.90;;;18.70;79.80;;;;;;4940618;28;20043;-79
2023/08/29 09:18:43;;;;;;;5.07;2.20;;;18.70;80.00;;;;;;4940387;28;20055;-79
2023/08/29 09:21:18;;;;;;;3.92;1.88;;;18.70;79.70;;;;;;4956657;28;20043;-79
2023/08/29 09:23:44;;;;;;;2.58;1.77;;;18.80;79.00;;;;;;4956488;28;20555;-79
2023/08/29 09:26:14;;;;;;;1.90;1.80;;;18.90;78.20;;;;;;4940513;28;20043;-79
2023/08/29 09:28:40;;;;;;;2.97;1.95;;;19.00;77.90;;;;;;4940426;28;20182;-79
2023/08/29 09:31:08;;;;;;;1.58;1.30;;;19.00;77.20;;;;;;4925028;28;20074;-79
2023/08/29 09:33:35;;;;;;;3.22;2.15;;;19.00;76.10;;;;;;4940464;28;20089;-79
2023/08/29 09:36:02;;;;;;;3.53;2.03;;;18.90;75.90;;;;;;4956419;28;20077;-79
2023/08/29 09:38:30;;;;;;;2.78;2.20;;;19.00;76.40;;;;;;4940435;28;20050;-79
2023/08/29 09:40:56;;;;;;;4.45;2.65;;;19.10;76.60;;;;;;4940681;28;20039;-79
2023/08/29 09:43:21;;;;;;;3.38;2.15;;;19.20;76.70;;;;;;4940346;28;20071;-79
2023/08/29 09:45:52;;;;;;;1.98;1.77;;;19.20;76.40;;;;;;4940484;28;20435;-79
2023/08/29 09:48:18;;;;;;;2.67;2.20;;;19.30;75.40;;;;;;4959171;28;20043;-78
2023/08/29 09:50:45;;;;;;;3.22;2.25;;;19.40;75.00;;;;;;4944153;28;20526;-79
2023/08/29 09:53:17;;;;;;;3.42;1.52;;;19.50;75.10;;;;;;4959620;28;20061;-79
2023/08/29 09:55:46;;;;;;;3.33;1.75;;;19.50;74.10;;;;;;4928388;28;20058;-79
2023/08/29 09:58:12;;;;;;;2.08;1.65;;;19.50;74.30;;;;;;4959803;28;20591;-79
2023/08/29 10:00:41;;;;;;;3.05;2.10;;;19.70;74.10;;;;;;4943756;28;20045;-79
2023/08/29 10:03:08;;;;;;;4.20;1.90;;;19.80;71.60;;;;;;4959787;28;20050;-78
2023/08/29 10:05:36;;;;;;;2.35;1.77;;;19.90;72.90;;;;;;4927645;28;20578;-79
2023/08/29 10:08:17;;;;;;;2.28;2.08;;;20.00;71.90;;;;;;4959691;28;20403;-79
2023/08/29 10:10:43;;;;;;;2.75;1.60;;;20.00;71.00;;;;;;4959412;28;20049;-79
2023/08/29 10:13:10;;;;;;;3.25;1.42;;;20.10;72.00;;;;;;4959441;28;20507;-78
2023/08/29 10:15:39;;;;;;;2.78;1.65;;;20.20;70.60;;;;;;4959185;28;20042;-78
2023/08/29 10:18:05;;;;;;;2.58;1.73;;;20.20;70.20;;;;;;4959547;28;20093;-79
2023/08/29 10:20:32;;;;;;;8.57;2.08;;;20.10;69.60;;;;;;4943726;28;20452;-78
2023/08/29 10:23:00;;;;;;;2.15;1.92;;;20.00;69.70;;;;;;4943702;28;20042;-78
2023/08/29 10:25:27;;;;;;;2.33;2.00;;;20.00;70.40;;;;;;4959848;28;20468;-79
2023/08/29 10:27:54;;;;;;;2.95;2.17;;;20.00;70.70;;;;;;4943828;28;20046;-78
2023/08/29 10:30:25;;;;;;;3.03;2.05;;;20.00;71.20;;;;;;4943630;28;20043;-78
2023/08/29 10:32:53;;;;;;;4.07;1.85;;;20.00;71.40;;;;;;4959718;28;20526;-78
2023/08/29 10:35:22;;;;;;;2.13;1.65;;;20.00;70.10;;;;;;4928208;28;20395;-79
2023/08/29 10:37:54;;;;;;;3.35;1.92;;;20.00;70.70;;;;;;4943597;28;20435;-77
2023/08/29 10:40:21;;;;;;;3.58;2.33;;;20.00;70.70;;;;;;4943724;28;20125;-78
2023/08/29 10:42:51;;;;;;;3.03;1.90;;;20.10;70.80;;;;;;4943374;28;20038;-78
2023/08/29 10:45:19;;;;;;;2.30;1.50;;;20.00;70.70;;;;;;4943822;28;20039;-80
2023/08/29 10:47:48;;;;;;;2.33;2.05;;;20.10;71.00;;;;;;4956656;28;20050;-79
2023/08/29 10:50:23;;;;;;;2.53;1.85;;;20.20;71.20;;;;;;4951582;28;20050;-79
2023/08/29 10:52:54;;;;;;;4.53;1.98;;;20.30;71.00;;;;;;4959988;28;20458;-79
2023/08/29 10:55:27;;;;;;;3.17;2.25;;;20.50;71.10;;;;;;4966269;28;20054;-80
2023/08/29 10:57:58;;;;;;;2.42;2.10;;;20.60;70.50;;;;;;4962795;28;20046;-80
2023/08/29 11:00:37;;;;;;;2.72;2.00;;;20.80;69.90;;;;;;4962209;28;20053;-79
2023/08/29 11:03:03;;;;;;;2.17;1.92;;;21.20;69.10;;;;;;4964029;28;20057;-79
2023/08/29 11:05:29;;;;;;;4.28;2.40;;;21.40;67.70;;;;;;4969915;28;20057;-79
2023/08/29 11:08:20;;;;;;;2.22;1.90;;;21.40;66.70;;;;;;4964509;28;20053;-80
2023/08/29 11:11:21;;;;;;;2.28;1.75;;;21.50;67.00;;;;;;4952790;28;20692;-80
2023/08/29 11:13:56;;;;;;;4.25;2.35;;;21.50;66.50;;;;;;4950042;28;20407;-79
2023/08/29 11:16:22;;;;;;;3.67;2.78;;;21.40;65.00;;;;;;4950607;28;20057;-79
2023/08/29 11:18:59;;;;;;;4.13;2.50;;;21.30;65.50;;;;;;4938417;28;20046;-79
2023/08/29 11:21:25;;;;;;;3.15;2.78;;;21.20;65.70;;;;;;4960897;28;20039;-79
2023/08/29 11:23:51;;;;;;;6.20;2.60;;;20.90;65.40;;;;;;4943425;28;20039;-79
2023/08/29 11:26:17;;;;;;;3.13;2.60;;;21.10;65.50;;;;;;4925140;28;20054;-79
2023/08/29 11:28:45;;;;;;;3.15;2.78;;;21.20;64.10;;;;;;4945439;28;20416;-81
2023/08/29 11:31:12;;;;;;;5.22;2.30;;;21.30;63.60;;;;;;4963036;28;20147;-80
2023/08/29 11:33:38;;;;;;;2.63;2.22;;;21.50;63.20;;;;;;4963805;28;20050;-78
2023/08/29 11:36:09;;;;;;;2.95;2.30;;;21.70;63.30;;;;;;4957667;28;20049;-78
2023/08/29 11:38:35;;;;;;;2.88;2.58;;;21.90;61.00;;;;;;4958897;28;20059;-79
2023/08/29 11:41:05;;;;;;;3.20;2.88;;;21.90;61.30;;;;;;4941457;28;20110;-80
2023/08/29 11:43:34;;;;;;;2.15;1.95;;;21.90;61.40;;;;;;4935805;28;20113;-80
2023/08/29 11:46:01;;;;;;;2.72;2.03;;;21.80;60.90;;;;;;4946912;28;20074;-79
2023/08/29 11:48:29;;;;;;;4.50;2.33;;;21.90;60.50;;;;;;4944942;28;20038;-78
2023/08/29 11:51:05;;;;;;;1.85;1.67;;;21.90;59.30;;;;;;4952919;28;20070;-79
2023/08/29 11:53:38;;;;;;;3.13;1.75;;;21.90;57.90;;;;;;4959398;28;20066;-79
2023/08/29 11:56:05;;;;;;;3.03;1.73;;;21.80;56.90;;;;;;4924035;28;20487;-79
2023/08/29 11:58:35;;;;;;;3.83;2.10;;;21.60;57.40;;;;;;4924015;28;20399;-80
2023/08/29 12:01:03;;;;;;;3.92;2.10;;;21.50;58.80;;;;;;4941282;28;20396;-79
2023/08/29 12:03:29;;;;;;;3.60;2.53;;;21.40;60.40;;;;;;4925850;28;20487;-81
2023/08/29 12:05:57;;;;;;;2.33;2.08;;;21.30;61.10;;;;;;4941751;28;20447;-79
2023/08/29 12:08:41;;;;;;;2.33;1.95;;;21.10;61.80;;;;;;4941804;28;20042;-79
2023/08/29 12:11:08;;;;;;;5.70;2.33;;;21.10;62.90;;;;;;4940531;28;20039;-79
2023/08/29 12:13:35;;;;;;;4.20;2.83;;;21.20;63.40;;;;;;4941919;28;20407;-79
2023/08/29 12:16:02;;;;;;;2.58;2.30;;;21.50;63.20;;;;;;4957194;28;20034;-79
2023/08/29 12:18:29;;;;;;;3.03;2.38;;;21.50;62.10;;;;;;4909986;28;20042;-80
2023/08/29 12:21:18;;;;;;;3.97;2.13;;;21.70;62.00;;;;;;4941166;28;20043;-80
2023/08/29 12:23:45;;;;;;;4.50;1.73;;;21.80;61.20;;;;;;4957190;28;20041;-79
2023/08/29 12:26:17;;;;;;;2.33;1.52;;;22.00;61.10;;;;;;4957246;28;20042;-80
2023/08/29 12:28:43;;;;;;;4.28;2.03;;;22.20;60.20;;;;;;4957090;28;20051;-80
2023/08/29 12:31:08;;;;;;;3.20;2.70;;;22.20;59.30;;;;;;4941326;28;20072;-80
2023/08/29 12:33:35;;;;;;;3.20;2.20;;;22.20;59.40;;;;;;4925238;28;20505;-80
2023/08/29 12:36:02;;;;;;;3.42;1.73;;;22.10;59.80;;;;;;4925378;28;20047;-79
2023/08/29 12:38:30;;;;;;;3.65;2.30;;;22.00;55.60;;;;;;4941068;28;20448;-80
2023/08/29 12:40:56;;;;;;;3.85;1.95;;;21.80;57.30;;;;;;4909885;28;20042;-80
2023/08/29 12:43:22;;;;;;;2.80;1.95;;;21.60;58.80;;;;;;4957134;28;20042;-80
2023/08/29 12:45:48;;;;;;;3.05;2.60;;;21.50;60.00;;;;;;4940925;28;20045;-81
2023/08/29 12:48:18;;;;;;;3.40;2.70;;;21.20;61.10;;;;;;4941013;28;20408;-80